Sektagli, Russia
Current Conditions -  °F | °C
As of 8:30 AM on Saturday 20 Dec 2014 (Local Time) from UHBB Reporting Station
Clear Clear  
Wind Chill: -37°   Ceiling: Unl
Heat Index: -30°   Visibility: 6mi
Dew Point: -32°   Wind: 4mph
Humidity: 83%   Direction: 310°NW
Pressure: 30.09"   Gusts: NA
Location:  50.42°N, 131°E
Report Text: UHBB 192230Z 31002MPS CAVOK M30/M32 Q1019 NOSIG RMK QFE747/099636412050
Loading
Personal Weather Stations






























Interactive Weather Map New forecast layout! Learn more

10-Day Weather Forecast

Advertisements
Track Severe Weather on mobile